Date,TemperatureHighF,TemperatureAvgF,TemperatureLowF,DewpointHighF,DewpointAvgF,DewpointLowF,HumidityHigh,HumidityAvg,HumidityLow,PressureMaxIn,PressureMinIn,WindSpeedMaxMPH,WindSpeedAvgMPH,GustSpeedMaxMPH,PrecipitationSumIn
2013-1-1,38,35,28,37,34,24,100,96,84,0.00,40.00,9,6,21,0.00
2013-1-2,36,28,22,26,23,21,95,82,57,0.00,40.00,9,4,15,0.10
2013-1-3,44,27,17,26,20,15,95,78,43,0.00,40.00,8,3,14,0.10
2013-1-4,47,30,17,28,21,15,94,73,38,0.00,40.00,8,3,16,0.00
2013-1-5,49,33,19,30,24,17,94,71,40,0.00,40.00,7,3,18,0.00
2013-1-6,47,36,21,35,29,19,93,76,51,0.00,40.00,11,5,21,0.00
2013-1-7,47,29,15,27,22,13,94,76,45,0.00,40.00,6,2,10,0.00
2013-1-8,61,39,22,33,23,-36,95,68,34,0.00,40.00,7,2,14,0.00
2013-1-9,55,47,39,49,44,33,98,89,75,0.00,40.00,7,3,11,0.06
2013-1-10,65,56,46,61,47,-100,99,87,82,0.00,40.00,9,6,22,0.40
2013-1-11,70,61,54,62,22,-100,97,50,46,0.00,40.00,11,6,24,1.02
2013-1-12,70,67,58,66,63,56,100,87,76,0.00,40.00,7,5,21,0.01
2013-1-13,69,48,29,62,45,25,100,92,76,0.00,40.00,13,7,24,2.42
2013-1-14,30,27,24,25,22,20,89,80,67,0.00,40.00,11,8,18,0.06
2013-1-15,31,27,23,29,24,21,95,89,80,0.00,40.00,8,0,13,0.01
2013-1-16,32,31,30,31,29,28,99,94,85,0.00,40.00,0,0,0,0.09
2013-1-17,48,35,27,33,29,26,99,79,54,0.00,40.00,14,6,27,0.01
2013-1-18,52,34,20,27,23,18,96,68,30,0.00,40.00,7,2,12,0.00
2013-1-19,59,45,27,30,24,-35,88,50,29,0.00,40.00,10,6,23,0.00
2013-1-20,50,41,26,32,24,15,94,55,30,0.00,40.00,9,5,17,0.00
2013-1-21,37,28,21,19,13,5,82,55,33,0.00,40.00,10,5,20,0.00
2013-1-22,26,22,17,10,1,-3,59,40,30,0.00,40.00,8,5,13,0.00
2013-1-23,51,30,13,30,18,4,90,62,35,0.00,40.00,10,3,17,0.00
2013-1-24,34,29,23,29,12,2,90,51,31,0.00,40.00,13,8,21,0.00
2013-1-25,35,29,25,33,24,3,99,82,33,0.00,40.00,8,3,13,0.24
2013-1-26,47,32,22,33,27,21,98,82,50,0.00,40.00,7,3,12,0.02
2013-1-27,49,37,26,44,34,25,99,91,69,0.00,40.00,6,4,16,0.06
2013-1-28,64,55,49,55,48,38,94,79,60,0.00,40.00,8,5,20,0.15
2013-1-29,70,63,56,62,58,52,92,82,70,0.00,40.00,11,6,30,0.11
2013-1-30,71,50,34,62,44,23,100,81,60,0.00,40.00,16,9,32,1.66
2013-1-31,45,38,25,33,23,19,94,58,39,0.00,40.00,14,10,25,0.03
2013-2-1,30,22,13,19,10,2,77,60,43,0.00,40.00,11,4,24,0.05
2013-2-2,43,32,22,34,25,15,90,75,46,0.00,40.00,12,4,20,0.03
2013-2-3,44,36,25,32,27,22,95,71,46,0.00,40.00,13,6,23,0.01
2013-2-4,56,40,25,38,29,22,92,68,27,0.00,40.00,10,5,19,0.01
2013-2-5,61,49,34,41,37,30,87,66,31,0.00,40.00,9,5,17,0.00
2013-2-6,55,41,28,34,31,27,99,69,35,0.00,40.00,6,3,11,0.00
2013-2-7,71,53,39,47,38,30,79,60,39,0.00,40.00,7,3,16,0.00
2013-2-8,54,41,34,51,35,27,99,80,68,0.00,40.00,13,10,26,0.33
2013-2-9,54,41,32,30,28,25,79,60,36,0.00,40.00,9,6,15,0.03
2013-2-10,61,52,44,55,44,28,98,75,43,0.00,40.00,9,6,25,0.40
2013-2-11,58,48,32,55,33,23,92,60,30,0.00,40.00,10,7,20,0.29
2013-2-12,51,40,26,33,28,25,98,68,41,0.00,40.00,8,4,14,0.00
2013-2-13,44,38,32,36,34,30,99,85,57,0.00,40.00,10,5,18,0.23
2013-2-14,62,44,33,37,35,33,99,73,35,0.00,40.00,10,5,19,0.01
2013-2-15,50,39,29,35,29,18,95,69,42,0.00,40.00,11,5,23,0.00
2013-2-16,38,28,18,22,15,6,94,63,27,0.00,40.00,13,5,24,0.00
2013-2-17,47,32,16,21,15,11,89,54,27,0.00,40.00,7,3,13,0.00
2013-2-18,64,49,33,46,31,16,96,54,26,0.00,40.00,14,7,32,0.52
2013-2-19,49,40,28,47,26,15,96,60,30,0.00,40.00,14,8,26,0.54
2013-2-20,34,27,20,19,15,12,85,61,45,0.00,40.00,9,5,15,0.00
2013-2-21,40,32,25,39,24,17,98,72,42,0.00,40.00,13,7,24,0.72
2013-2-22,58,45,35,45,39,33,100,82,50,0.00,40.00,10,6,20,0.45
2013-2-23,49,38,28,34,28,25,95,71,41,0.00,40.00,7,4,15,0.00
2013-2-24,53,36,22,27,25,21,96,67,35,0.00,40.00,8,4,16,0.00
2013-2-25,61,48,34,40,28,24,70,48,29,0.00,40.00,13,8,26,0.00
2013-2-26,55,47,39,50,43,35,100,87,55,0.00,40.00,11,7,26,0.82
2013-2-27,40,38,37,35,31,28,87,78,70,0.00,40.00,12,10,23,0.02
2013-2-28,39,35,33,32,29,25,93,76,64,0.00,40.00,9,6,18,0.02
2013-3-1,40,34,32,34,32,31,98,93,79,0.00,40.00,8,5,17,0.15
2013-3-2,33,31,29,31,27,22,96,86,69,0.00,40.00,12,7,20,0.08
2013-3-3,43,33,24,25,18,12,74,55,29,0.00,40.00,9,4,16,0.04
2013-3-4,60,46,33,31,24,18,73,45,29,0.00,40.00,8,5,19,0.00
2013-3-5,53,43,32,52,38,20,100,85,42,0.00,40.00,13,7,28,0.80
2013-3-6,41,34,28,27,25,22,90,69,57,0.00,40.00,12,9,24,0.01
2013-3-7,42,34,29,29,26,24,89,72,57,0.00,40.00,7,5,14,0.00
2013-3-8,55,39,23,31,26,22,96,66,33,0.00,40.00,11,5,18,0.00
2013-3-9,66,52,38,35,30,27,74,46,25,0.00,40.00,7,4,14,0.00
2013-3-10,72,61,54,56,41,32,100,52,29,0.00,40.00,9,6,27,0.63
2013-3-11,56,46,38,56,41,30,100,84,64,0.00,40.00,11,7,21,2.47
2013-3-12,53,42,28,32,28,24,98,62,32,0.00,40.00,9,5,19,0.12
2013-3-13,45,38,26,29,22,17,87,54,35,0.00,40.00,12,7,22,0.00
2013-3-14,48,33,19,37,24,17,98,76,32,0.00,40.00,6,3,11,0.12
2013-3-15,76,54,30,47,39,30,100,65,34,0.00,40.00,11,5,25,0.09
2013-3-16,75,64,48,50,46,40,74,53,41,0.00,40.00,16,10,28,0.00
2013-3-17,48,44,42,44,42,40,97,90,74,0.00,40.00,10,7,20,0.17
2013-3-18,57,49,37,52,46,37,100,89,76,0.00,40.00,11,6,25,1.13
2013-3-19,54,41,30,37,25,11,100,61,18,0.00,40.00,10,5,19,0.19
2013-3-20,48,36,25,31,25,15,95,66,41,0.00,40.00,13,6,23,0.00
2013-3-21,42,30,17,19,16,11,92,58,34,0.00,40.00,10,4,19,0.00
2013-3-22,44,38,33,25,20,16,56,49,40,0.00,40.00,7,5,11,0.00
2013-3-23,57,47,40,46,34,25,95,62,48,0.00,40.00,11,6,19,0.15
2013-3-24,49,43,34,47,40,29,100,92,72,0.00,40.00,17,8,34,0.57
2013-3-25,36,33,31,32,29,26,99,85,70,0.00,40.00,15,10,28,0.09
2013-3-26,41,35,30,31,28,25,96,77,54,0.00,40.00,8,5,15,0.07
2013-3-27,51,36,23,28,25,22,98,71,35,0.00,40.00,10,4,17,0.05
2013-3-28,60,54,45,40,35,33,82,51,37,0.00,40.00,6,3,13,0.00
2013-3-29,54,47,43,47,43,35,100,87,68,0.00,40.00,6,3,10,0.45
2013-3-30,54,48,40,51,44,-100,100,93,72,0.00,40.00,6,3,11,0.42
2013-3-31,62,54,42,54,50,42,100,89,61,0.00,40.00,8,4,19,0.45
2013-4-1,59,48,39,44,37,27,100,68,44,0.00,40.00,11,6,20,0.03
2013-4-2,49,41,33,32,24,19,91,54,31,0.00,40.00,10,4,17,0.00
2013-4-3,54,44,32,28,22,19,82,43,26,0.00,40.00,14,7,24,0.00
2013-4-4,45,43,39,45,34,22,100,76,41,0.00,40.00,6,4,11,0.33
2013-4-5,69,51,33,45,37,33,100,67,28,0.00,40.00,9,3,17,0.01
2013-4-6,78,58,38,42,38,35,100,58,21,0.00,40.00,8,4,17,0.00
2013-4-7,76,66,57,50,44,37,67,47,32,0.00,40.00,13,6,22,0.00
2013-4-8,80,66,55,56,51,47,76,59,36,0.00,40.00,11,4,22,0.00
2013-4-9,79,68,55,62,58,51,89,73,57,0.00,40.00,8,3,18,0.00
2013-4-10,87,76,67,61,59,54,79,58,38,0.00,40.00,9,5,24,0.00
2013-4-11,76,62,49,63,57,46,100,89,47,0.00,40.00,10,5,19,2.49
2013-4-12,62,50,36,46,39,34,100,68,38,0.00,40.00,12,6,24,0.09
2013-4-13,67,52,33,43,37,33,99,61,35,0.00,40.00,7,4,14,0.00
2013-4-14,76,60,44,51,43,40,89,58,29,0.00,40.00,10,5,24,0.00
2013-4-15,84,69,54,59,54,51,94,62,34,0.00,40.00,7,4,17,0.00
2013-4-16,80,73,66,67,64,59,87,74,64,0.00,40.00,8,5,17,0.00
2013-4-17,91,77,65,69,65,60,100,69,36,0.00,40.00,9,4,19,0.00
2013-4-18,84,76,66,66,62,59,96,65,46,0.00,40.00,10,6,24,0.34
2013-4-19,66,45,36,65,37,31,97,74,52,0.00,40.00,12,8,27,1.49
2013-4-20,61,48,31,39,33,29,99,62,29,0.00,40.00,7,4,18,0.02
2013-4-21,65,51,35,39,33,26,97,57,24,0.00,40.00,10,5,20,0.00
2013-4-22,75,59,38,46,40,34,96,55,28,0.00,40.00,7,3,14,0.00
2013-4-23,76,64,50,54,51,46,88,64,43,0.00,40.00,8,5,21,0.00
2013-4-24,66,51,36,58,45,35,98,81,66,0.00,40.00,11,6,21,0.59
2013-4-25,66,48,29,43,36,29,99,70,34,0.00,40.00,8,3,17,0.14
2013-4-26,56,48,38,52,44,38,100,88,58,0.00,40.00,6,3,17,0.46
2013-4-27,60,54,49,58,54,49,100,98,89,0.00,40.00,7,5,16,3.68
2013-4-28,65,58,48,58,54,48,100,88,63,0.00,40.00,8,5,16,2.43
2013-4-29,76,60,44,57,51,44,100,76,43,0.00,40.00,5,3,13,0.01
2013-4-30,81,60,47,56,51,47,100,79,40,0.00,40.00,5,2,13,0.00
2013-5-1,77,70,63,62,60,57,95,72,50,0.00,40.00,5,1,10,0.00
2013-5-2,80,68,56,62,58,56,100,75,46,0.00,40.00,6,2,12,0.00
2013-5-3,76,65,45,61,55,44,97,74,47,0.00,40.00,11,6,29,0.17
2013-5-4,52,46,43,44,42,41,99,88,65,0.00,40.00,6,3,11,1.13
2013-5-5,60,51,44,52,47,43,99,88,68,0.00,40.00,5,3,11,0.01
2013-5-6,68,58,51,56,52,49,100,85,52,0.00,40.00,8,4,16,0.26
2013-5-7,73,59,49,61,55,49,100,88,56,0.00,40.00,7,2,14,0.15
2013-5-8,80,66,52,60,57,52,100,77,43,0.00,40.00,7,3,16,0.01
2013-5-9,81,68,55,67,59,55,100,75,47,0.00,40.00,7,2,23,0.04
2013-5-10,71,64,63,66,59,-100,100,92,80,0.00,40.00,7,3,16,0.86
2013-5-11,69,60,55,63,53,-100,98,81,50,0.00,40.00,7,5,18,0.03
2013-5-12,64,53,39,43,37,27,98,60,32,0.00,40.00,7,4,19,0.01
2013-5-13,71,54,36,46,38,33,99,64,27,0.00,40.00,7,2,15,0.00
2013-5-14,87,68,46,58,52,42,95,61,34,0.00,40.00,11,5,22,0.00
2013-5-15,85,73,62,58,53,43,83,52,23,0.00,40.00,11,6,24,0.00
2013-5-16,82,65,61,66,40,-100,100,68,48,0.00,40.00,10,4,20,0.23
2013-5-17,69,64,61,66,58,-100,100,96,88,0.00,40.00,5,3,13,0.46
2013-5-18,83,72,65,70,67,65,100,85,58,0.00,40.00,5,2,10,0.09
2013-5-19,88,76,66,74,70,66,100,83,58,0.00,40.00,9,3,16,0.01
2013-5-20,88,77,67,71,69,66,100,78,55,0.00,40.00,8,4,17,0.00
2013-5-21,79,71,65,70,66,64,100,87,63,0.00,40.00,9,4,27,1.23
2013-5-22,77,68,62,66,64,62,100,89,65,0.00,40.00,9,4,18,1.14
2013-5-23,73,67,58,62,58,54,100,74,54,0.00,40.00,11,6,25,0.01
2013-5-24,71,59,49,55,48,44,99,70,39,0.00,40.00,11,5,25,0.01
2013-5-25,78,61,43,54,48,43,100,70,31,0.00,40.00,5,2,11,0.00
2013-5-26,84,68,52,64,56,52,100,71,43,0.00,40.00,6,2,10,0.00
2013-5-27,85,71,55,63,60,55,100,73,45,0.00,40.00,8,3,19,0.00
2013-5-28,87,76,66,65,62,58,89,63,39,0.00,40.00,10,4,26,0.00
2013-5-29,88,75,60,68,64,59,99,71,43,0.00,40.00,7,3,17,0.00
2013-5-30,86,78,71,70,66,63,80,68,55,0.00,40.00,8,4,21,0.00
2013-5-31,84,75,70,75,69,65,97,82,70,0.00,40.00,7,4,21,0.95
2013-6-1,77,69,65,68,64,-100,100,90,75,0.00,40.00,8,4,21,0.71
2013-6-2,79,71,62,68,64,60,100,82,52,0.00,40.00,7,4,14,0.02
2013-6-3,79,67,55,63,58,55,100,78,48,0.00,40.00,8,3,14,0.01
2013-6-4,85,68,51,64,58,51,100,75,43,0.00,40.00,5,2,13,0.00
2013-6-5,87,72,60,71,66,60,100,83,55,0.00,40.00,4,2,11,0.02
2013-6-6,81,71,64,71,68,63,100,89,62,0.00,40.00,6,2,22,0.52
2013-6-7,79,70,64,71,65,63,100,87,59,0.00,40.00,8,3,16,0.01
2013-6-8,82,70,59,66,62,57,100,79,42,0.00,40.00,5,2,12,0.01
2013-6-9,85,69,58,70,65,58,100,88,59,0.00,40.00,5,2,26,0.79
2013-6-10,84,73,65,73,67,62,100,84,50,0.00,40.00,10,4,23,0.76
2013-6-11,92,76,59,78,68,59,100,79,51,0.00,40.00,6,2,12,0.02
2013-6-12,92,84,75,76,74,72,98,74,58,0.00,40.00,8,5,18,0.00
2013-6-13,85,79,63,74,69,63,99,73,57,0.00,40.00,13,8,25,0.00
2013-6-14,83,70,55,63,59,55,100,74,43,0.00,40.00,11,4,21,0.00
2013-6-15,88,74,59,70,64,59,100,76,43,0.00,40.00,4,2,14,0.00
2013-6-16,86,75,64,73,70,64,100,84,63,0.00,40.00,6,2,14,0.00
2013-6-17,90,74,67,75,70,67,100,89,57,0.00,40.00,6,2,24,0.57
2013-6-18,86,74,66,70,67,65,100,82,50,0.00,40.00,8,5,15,0.40
2013-6-19,91,76,64,72,67,64,100,78,44,0.00,40.00,5,2,9,0.18
2013-6-20,92,75,63,72,67,63,100,81,42,0.00,40.00,3,1,9,0.00
2013-6-22,90,84,71,74,71,69,100,67,50,0.00,40.00,5,3,13,0.05
2013-6-23,89,78,67,75,70,67,100,78,53,0.00,40.00,5,2,12,0.00
2013-6-24,89,77,69,75,72,68,100,85,62,0.00,40.00,8,2,15,0.00
2013-6-25,91,80,68,77,73,68,100,82,59,0.00,40.00,8,3,13,0.00
2013-6-26,90,80,71,76,73,70,100,80,61,0.00,40.00,10,4,21,0.19
2013-6-27,92,81,69,77,73,69,99,79,52,0.00,40.00,8,5,21,0.34
2013-6-28,89,78,68,75,70,64,100,80,49,0.00,40.00,7,4,21,0.00
2013-6-29,85,74,62,68,63,57,99,73,49,0.00,40.00,9,5,20,0.01
2013-6-30,81,69,59,68,64,59,100,84,62,0.00,40.00,8,3,14,0.01
2013-7-1,77,69,64,68,66,63,100,91,69,0.00,40.00,9,3,17,0.04
2013-7-2,80,70,64,67,65,62,100,86,56,0.00,40.00,10,3,17,0.02
2013-7-3,84,70,58,69,64,58,100,84,53,0.00,40.00,4,2,11,0.00
2013-7-4,72,68,64,70,68,64,100,98,92,0.00,40.00,6,3,13,0.84
2013-7-5,84,72,65,72,68,65,100,91,63,0.00,40.00,6,2,13,0.15
2013-7-6,81,71,64,72,69,64,100,94,71,0.00,40.00,7,3,28,1.86
2013-7-7,89,76,63,76,69,63,100,84,54,0.00,40.00,5,2,10,1.36
2013-7-8,92,76,65,77,69,-100,100,85,53,0.00,40.00,4,1,9,0.01
2013-7-9,92,80,68,79,74,68,100,83,58,0.00,40.00,6,2,14,0.00
2013-7-10,91,79,72,79,70,-100,100,81,65,0.00,40.00,9,4,15,0.00
2013-7-11,88,76,66,77,69,60,100,81,55,0.00,40.00,10,4,19,0.00
2013-7-12,84,72,59,65,60,58,100,72,42,0.00,40.00,10,5,19,0.00
2013-7-13,85,71,56,68,62,56,100,77,44,0.00,40.00,7,2,14,0.00
2013-7-14,88,76,64,73,69,64,99,82,58,0.00,40.00,7,3,15,0.00
2013-7-15,90,79,72,73,71,70,97,79,53,0.00,40.00,5,3,12,0.00
2013-7-16,95,88,74,75,72,70,98,63,46,0.00,40.00,3,1,9,0.00
2013-7-17,94,82,69,77,73,69,100,79,51,0.00,40.00,7,2,13,0.00
2013-7-18,92,79,70,78,74,69,100,86,64,0.00,40.00,8,3,23,0.47
2013-7-19,92,80,67,77,72,67,100,80,55,0.00,40.00,6,2,11,0.02
2013-7-20,91,79,71,77,71,-100,100,79,57,0.00,40.00,7,3,18,0.00
2013-7-21,89,76,70,77,72,70,100,89,62,0.00,40.00,10,2,23,1.26
2013-7-22,83,74,70,76,72,70,100,93,73,0.00,40.00,9,4,19,2.12
2013-7-23,89,78,68,75,72,66,100,83,57,0.00,40.00,12,4,22,0.04
2013-7-24,86,73,63,69,66,62,100,80,55,0.00,40.00,8,3,21,0.16
2013-7-25,84,71,58,66,62,58,100,78,46,0.00,40.00,7,3,17,0.01
2013-7-26,84,71,56,67,63,56,100,80,51,0.00,40.00,6,2,12,0.00
2013-7-27,84,73,66,70,66,58,100,80,59,0.00,40.00,7,4,16,0.01
2013-7-28,79,67,53,63,56,51,100,72,40,0.00,40.00,5,2,11,0.01
2013-7-29,82,68,55,66,61,55,100,80,47,0.00,40.00,3,1,7,0.00
2013-7-30,74,69,63,72,67,63,100,94,77,0.00,40.00,5,2,12,0.20
2013-7-31,87,76,69,77,72,68,100,89,67,0.00,40.00,6,3,14,0.05
2013-8-1,85,73,64,70,68,64,100,86,56,0.00,40.00,7,2,15,0.03
2013-8-2,87,73,58,73,66,58,100,81,48,0.00,40.00,3,1,8,0.00
2013-8-3,81,73,67,75,71,67,100,93,76,0.00,40.00,6,2,12,0.07
2013-8-4,84,74,64,72,66,61,100,77,48,0.00,40.00,8,4,13,0.01
2013-8-5,83,70,62,70,65,62,100,86,49,0.00,40.00,4,1,8,0.08
2013-8-6,83,74,66,76,72,66,100,94,77,0.00,40.00,5,2,11,0.02
2013-8-7,86,77,72,77,74,72,100,94,72,0.00,40.00,5,2,8,0.05
2013-8-8,83,76,70,78,74,70,100,96,82,0.00,40.00,5,2,18,0.56
2013-8-9,91,79,71,77,74,71,100,86,62,0.00,40.00,6,2,14,0.56
2013-8-10,85,76,71,75,73,71,100,91,65,0.00,40.00,5,2,10,0.67
2013-8-11,89,78,71,77,74,71,100,88,63,0.00,40.00,5,2,12,0.15
2013-8-12,88,76,72,77,74,72,100,94,68,0.00,40.00,6,2,19,0.88
2013-8-13,85,75,68,73,68,-100,100,84,63,0.00,40.00,7,4,14,0.07
2013-8-14,76,66,56,63,57,52,100,74,44,0.00,40.00,11,6,19,0.00
2013-8-15,81,62,51,61,51,-100,100,78,46,0.00,40.00,7,2,18,0.00
2013-8-16,79,68,59,69,61,-100,100,83,63,0.00,40.00,6,2,11,0.00
2013-8-17,80,70,64,70,65,-100,100,88,65,0.00,40.00,5,2,17,0.93
2013-8-18,82,71,64,70,67,64,100,89,62,0.00,40.00,5,2,11,0.02
2013-8-19,87,70,62,73,62,-100,100,85,52,0.00,40.00,5,1,9,0.00
2013-8-20,87,75,65,75,70,65,100,87,63,0.00,40.00,4,1,18,0.43
2013-8-21,91,78,67,76,72,67,100,83,53,0.00,40.00,5,2,10,0.42
2013-8-22,91,78,67,76,72,67,100,83,51,0.00,40.00,6,2,11,0.00
2013-8-23,94,76,67,76,71,67,100,87,50,0.00,40.00,4,1,17,0.01
2013-8-24,90,75,64,73,67,-100,100,80,51,0.00,40.00,8,3,15,0.01
2013-8-25,88,76,64,73,69,64,100,83,57,0.00,40.00,5,2,16,0.00
2013-8-26,89,76,65,74,70,65,100,84,55,0.00,40.00,6,2,12,0.00
2013-8-27,86,74,65,74,69,65,100,86,61,0.00,40.00,7,3,12,0.00
2013-8-28,91,84,72,75,72,71,100,70,53,0.00,40.00,6,4,11,0.00
2013-8-29,95,81,68,77,73,68,100,81,49,0.00,40.00,6,3,11,0.00
2013-8-30,94,81,71,77,74,71,100,81,52,0.00,40.00,6,2,14,0.00
2013-8-31,94,80,71,79,72,-100,100,82,55,0.00,40.00,7,2,14,0.07
2013-9-1,84,74,66,74,70,66,100,89,68,0.00,40.00,9,4,32,1.36
2013-9-2,90,77,66,76,72,66,100,86,59,0.00,40.00,7,2,15,0.02
2013-9-3,87,73,63,70,66,63,100,81,48,0.00,40.00,6,3,14,0.00
2013-9-4,86,71,57,67,62,57,100,80,44,0.00,40.00,4,1,10,0.00
2013-9-5,86,70,55,68,62,55,100,81,47,0.00,40.00,6,2,12,0.00
2013-9-6,90,73,58,72,65,58,100,81,48,0.00,40.00,6,1,12,0.00
2013-9-7,89,73,60,75,66,-100,100,82,50,0.00,40.00,6,2,11,0.00
2013-9-8,91,77,65,78,71,65,100,84,55,0.00,40.00,3,1,7,0.00
2013-9-9,91,79,71,78,74,70,100,86,60,0.00,40.00,5,2,8,0.01
2013-9-10,90,78,69,76,72,69,100,86,62,0.00,40.00,4,1,14,0.01
2013-9-11,91,74,67,76,71,67,100,91,61,0.00,40.00,6,2,13,0.35
2013-9-12,88,75,67,75,71,67,100,87,63,0.00,40.00,7,2,16,0.07
2013-9-13,77,66,53,68,57,50,100,74,46,0.00,40.00,11,5,22,0.00
2013-9-14,75,60,47,57,49,-100,100,75,42,0.00,40.00,8,4,17,0.00
2013-9-15,82,60,46,61,54,46,100,85,45,0.00,40.00,5,1,14,0.00
2013-9-16,77,67,55,66,62,55,100,86,63,0.00,40.00,6,2,12,0.00
2013-9-17,86,70,60,69,64,60,100,82,48,0.00,40.00,4,2,10,0.00
2013-9-18,68,65,63,68,65,63,100,100,98,0.00,40.00,2,0,6,0.00
2013-9-19,87,74,65,73,69,65,100,85,57,0.00,40.00,7,2,17,0.00
2013-9-20,84,73,67,73,69,65,100,89,61,0.00,40.00,7,3,16,1.76
2013-9-21,74,64,53,68,56,-100,100,80,45,0.00,40.00,10,5,17,2.19
2013-9-22,76,60,47,58,52,47,100,79,43,0.00,40.00,8,3,15,0.01
2013-9-23,81,62,46,61,54,46,100,81,43,0.00,40.00,7,2,12,0.00
2013-9-24,82,67,53,67,61,53,100,85,47,0.00,40.00,6,2,13,0.19
2013-9-25,83,70,61,67,66,61,100,88,54,0.00,40.00,4,2,9,0.23
2013-9-26,84,67,57,70,62,57,100,86,49,0.00,40.00,7,2,13,0.01
2013-9-27,84,66,49,65,58,49,100,81,40,0.00,40.00,4,1,8,0.00
2013-9-28,82,66,56,65,58,-100,100,80,44,0.00,40.00,7,2,16,0.00
2013-9-29,65,62,57,64,61,57,100,95,82,0.00,40.00,3,1,8,0.48
2013-9-30,76,67,62,66,56,-100,100,87,64,0.00,40.00,5,2,14,0.01
2013-10-1,72,70,68,71,70,68,100,99,98,0.00,40.00,2,1,3,0.00
2013-10-2,81,72,68,73,70,68,100,94,77,0.00,40.00,4,1,8,0.00
2013-10-3,86,74,64,71,67,64,100,83,49,0.00,40.00,5,2,15,0.01
2013-10-4,86,72,62,73,68,62,100,88,61,0.00,40.00,5,2,12,0.01
2013-10-5,87,74,64,73,69,64,100,89,56,0.00,40.00,7,2,17,0.01
2013-10-6,74,61,51,71,59,47,100,93,78,0.00,40.00,7,3,26,1.61
2013-10-7,67,53,42,51,47,42,100,82,47,0.00,40.00,7,2,15,0.02
2013-10-8,72,55,41,51,46,41,100,77,37,0.00,40.00,10,4,21,0.00
2013-10-9,81,62,46,63,55,46,100,83,50,0.00,40.00,5,1,9,0.00
2013-10-10,82,66,54,66,60,54,100,87,49,0.00,40.00,3,1,8,0.00
2013-10-11,83,64,50,63,57,50,100,83,43,0.00,40.00,4,1,9,0.00
2013-10-12,80,64,51,66,57,-100,100,85,55,0.00,40.00,6,1,12,0.00
2013-10-13,79,66,54,65,60,50,100,83,55,0.00,40.00,8,3,18,0.00
2013-10-14,80,62,47,61,55,47,100,81,47,0.00,40.00,5,2,10,0.00
2013-10-15,73,66,60,67,62,60,100,89,67,0.00,40.00,6,2,17,0.01
2013-10-16,66,60,55,65,59,55,100,97,91,0.00,40.00,5,2,16,0.30
2013-10-17,64,54,44,55,50,44,100,87,60,0.00,40.00,6,2,17,0.09
2013-10-18,69,52,38,54,46,38,100,83,43,0.00,40.00,6,1,13,0.01
2013-10-19,55,48,38,53,44,-100,100,90,58,0.00,40.00,7,3,22,0.13
2013-10-20,66,48,34,46,40,34,100,80,38,0.00,40.00,5,2,13,0.02
2013-10-21,71,52,35,53,44,35,100,80,40,0.00,40.00,8,2,19,0.00
2013-10-22,63,53,45,53,42,36,96,73,36,0.00,40.00,6,3,15,0.10
2013-10-23,54,45,38,47,37,32,99,76,45,0.00,40.00,10,5,26,0.02
2013-10-24,51,43,29,42,36,29,100,81,52,0.00,40.00,8,2,19,0.00
2013-10-25,52,36,24,31,26,22,98,74,31,0.00,40.00,6,2,13,0.00
2013-10-26,58,42,26,43,32,-100,98,73,46,0.00,40.00,7,2,19,0.00
2013-10-27,68,51,38,53,46,38,100,86,55,0.00,40.00,4,1,10,0.00
2013-10-28,69,58,49,59,54,-100,100,91,60,0.00,40.00,4,2,9,0.09
2013-10-29,67,56,48,61,54,48,100,93,76,0.00,40.00,4,2,10,0.01
2013-10-30,78,68,60,63,61,56,100,80,58,0.00,40.00,9,3,19,0.00
2013-10-31,69,66,58,67,62,56,99,87,68,0.00,40.00,13,6,30,0.91
2013-11-1,71,59,47,57,49,40,100,74,33,0.00,40.00,11,5,30,0.82
2013-11-2,59,48,39,48,41,-100,100,80,52,0.00,40.00,11,3,20,0.00
2013-11-3,60,43,30,43,34,30,100,76,34,0.00,40.00,6,2,15,0.00
2013-11-4,62,49,33,45,40,33,100,75,43,0.00,40.00,5,2,16,0.00
2013-11-5,71,59,49,45,42,38,78,54,37,0.00,40.00,4,3,13,0.00
2013-11-6,69,60,44,62,50,39,100,73,48,0.00,40.00,13,5,24,0.24
2013-11-7,54,43,30,43,33,24,99,74,31,0.00,40.00,9,4,18,0.10
2013-11-8,60,41,27,38,29,25,99,71,26,0.00,40.00,6,1,13,0.00
2013-11-9,64,47,30,37,31,-100,97,60,29,0.00,40.00,10,3,22,0.00
2013-11-10,64,48,32,40,33,28,99,62,28,0.00,40.00,8,3,16,0.00
2013-11-11,71,48,27,41,29,21,98,60,16,0.00,40.00,4,1,11,0.00
2013-11-12,55,38,27,42,26,17,92,63,36,0.00,40.00,15,10,33,0.05
2013-11-13,47,31,19,24,20,16,94,67,31,0.00,40.00,6,2,10,0.03
2013-11-14,59,36,20,29,18,12,95,60,17,0.00,40.00,7,2,16,0.00
2013-11-15,51,44,29,50,39,26,99,86,59,0.00,40.00,4,1,9,0.03
2013-11-16,65,58,51,61,54,-100,96,88,80,0.00,40.00,7,4,22,0.04
2013-11-17,70,65,51,67,62,50,100,91,79,0.00,40.00,9,6,30,1.52
2013-11-18,62,51,39,50,35,26,99,57,32,0.00,40.00,10,5,22,0.35
2013-11-19,50,41,32,32,28,25,98,61,39,0.00,40.00,12,5,21,0.00
2013-11-20,63,44,29,34,30,27,96,65,29,0.00,40.00,7,2,16,0.00
2013-11-21,69,55,43,55,45,32,100,71,48,0.00,40.00,6,3,15,0.04
2013-11-22,59,52,42,58,50,40,100,94,87,0.00,40.00,11,6,22,0.62
2013-11-23,45,37,23,40,24,-100,91,65,27,0.00,40.00,13,9,28,0.03
2013-11-24,35,26,18,15,12,11,75,58,36,0.00,40.00,10,6,20,0.00
2013-11-25,44,33,28,33,20,12,99,63,31,0.00,40.00,7,3,15,0.05
2013-11-26,36,35,33,35,32,25,99,92,70,0.00,40.00,10,6,21,0.07
2013-11-27,34,25,15,25,12,6,89,57,36,0.00,40.00,13,8,26,0.01
2013-11-28,46,27,13,19,14,10,91,63,26,0.00,40.00,7,2,15,0.00
2013-11-29,53,32,19,26,22,17,94,71,32,0.00,40.00,5,2,9,0.00
2013-11-30,59,38,22,29,20,-100,96,61,18,0.00,40.00,8,2,18,0.00
2013-12-1,55,49,36,39,33,25,76,54,45,0.00,40.00,4,2,11,0.00
2013-12-2,61,51,45,48,43,38,96,75,57,0.00,40.00,5,1,9,0.00
2013-12-3,63,54,46,55,51,45,100,89,67,0.00,40.00,5,2,12,0.00
2013-12-4,77,67,56,62,58,55,99,77,48,0.00,40.00,10,5,24,0.00
2013-12-5,70,48,32,66,45,31,98,88,80,0.00,40.00,12,8,25,0.50
2013-12-6,32,30,26,31,28,24,97,94,91,0.00,40.00,10,4,20,0.73
2013-12-7,26,24,22,24,20,-100,93,89,88,0.00,40.00,0,0,0,0.01
2013-12-8,34,30,26,34,24,-100,100,93,93,0.00,40.00,0,0,0,0.42
2013-12-9,33,31,27,33,27,20,100,86,74,0.00,40.00,7,4,16,0.27
2013-12-10,39,29,21,26,22,19,96,76,52,0.00,40.00,8,4,16,0.01
2013-12-11,45,29,16,30,22,14,95,77,46,0.00,40.00,9,4,18,0.00
2013-12-12,40,24,12,17,13,9,92,66,28,0.00,40.00,6,2,13,0.00
2013-12-13,45,32,15,32,20,13,94,66,33,0.00,40.00,5,2,11,0.03
2013-12-14,45,39,34,44,36,-100,96,92,81,0.00,40.00,9,5,18,0.51
2013-12-15,34,32,27,32,27,25,97,82,70,0.00,40.00,9,5,18,0.01
2013-12-16,56,41,26,34,32,25,97,72,43,0.00,40.00,11,4,19,0.00
2013-12-17,51,42,27,38,32,25,96,70,40,0.00,40.00,11,4,20,0.00
2013-12-18,54,37,20,31,20,14,99,59,20,0.00,40.00,5,2,13,0.00
2013-12-19,62,52,41,47,38,25,69,58,47,0.00,40.00,11,5,29,0.00
2013-12-20,64,60,56,62,54,42,95,82,57,0.00,40.00,7,5,19,0.09
2013-12-21,74,67,60,62,-60,-100,94,22,78,0.00,40.00,9,6,35,1.73
2013-12-22,61,52,46,54,49,37,96,88,72,0.00,40.00,9,5,25,0.90
2013-12-23,37,32,23,35,28,22,100,87,65,0.00,40.00,9,6,19,0.02
2013-12-24,30,24,17,24,14,8,99,68,40,0.00,40.00,11,5,19,0.00
2013-12-25,48,30,13,22,16,12,99,64,26,0.00,40.00,5,2,11,0.00
2013-12-26,48,34,24,32,26,22,99,76,41,0.00,40.00,6,2,11,0.00
2013-12-27,56,34,19,33,24,19,100,75,32,0.00,40.00,6,2,11,0.00
2013-12-28,47,35,22,39,28,-100,99,81,46,0.00,40.00,2,1,8,0.10
2013-12-29,55,41,30,42,36,25,97,83,55,0.00,40.00,10,5,23,0.32
2013-12-30,31,27,19,25,21,19,98,78,65,0.00,40.00,8,4,15,0.01
2013-12-31,46,29,18,25,22,18,100,77,42,0.00,40.00,7,2,11,0.00
2014-1-1,54,37,20,34,25,20,99,68,30,0.00,40.00,6,2,15,0.00
2014-1-2,45,29,18,40,24,10,96,82,65,0.00,40.00,12,8,27,0.08